createdAt,value
2023-04-21T00:01:25.344Z,19.37
2023-04-21T00:03:52.096Z,20.17
2023-04-21T00:06:22.622Z,20.23
2023-04-21T00:08:50.180Z,17.57
2023-04-21T00:11:16.926Z,19.80
2023-04-21T00:13:43.633Z,20.03
2023-04-21T00:16:10.591Z,18.90
2023-04-21T00:18:37.398Z,19.27
2023-04-21T00:21:04.323Z,19.03
2023-04-21T00:23:31.007Z,18.23
2023-04-21T00:25:57.740Z,17.73
2023-04-21T00:28:24.393Z,21.47
2023-04-21T00:30:51.130Z,17.93
2023-04-21T00:33:17.829Z,19.37
2023-04-21T00:35:44.499Z,18.23
2023-04-21T00:38:11.130Z,21.33
2023-04-21T00:40:37.905Z,19.27
2023-04-21T00:43:08.134Z,20.23
2023-04-21T00:45:34.787Z,19.80
2023-04-21T00:48:01.575Z,18.90
2023-04-21T00:50:28.582Z,19.73
2023-04-21T00:52:56.008Z,20.63
2023-04-21T00:55:23.883Z,21.37
2023-04-21T00:57:51.892Z,19.83
2023-04-21T01:00:18.641Z,18.93
2023-04-21T01:02:45.718Z,20.70
2023-04-21T01:05:16.336Z,19.80
2023-04-21T01:07:43.584Z,21.30
2023-04-21T01:10:10.410Z,21.83
2023-04-21T01:12:46.996Z,19.70
2023-04-21T01:15:14.353Z,16.67
2023-04-21T01:17:41.598Z,22.93
2023-04-21T01:20:10.611Z,19.10
2023-04-21T01:22:37.803Z,18.30
2023-04-21T01:25:05.452Z,19.70
2023-04-21T01:27:32.162Z,19.63
2023-04-21T01:29:58.964Z,17.43
2023-04-21T01:32:29.216Z,20.20
2023-04-21T01:34:56.837Z,17.97
2023-04-21T01:37:24.934Z,19.07
2023-04-21T01:39:54.141Z,18.43
2023-04-21T01:42:21.678Z,19.10
2023-04-21T01:44:49.456Z,19.33
2023-04-21T01:47:17.401Z,19.57
2023-04-21T01:49:44.124Z,20.00
2023-04-21T01:52:12.590Z,21.10
2023-04-21T01:54:39.708Z,20.13
2023-04-21T01:57:07.277Z,18.83
2023-04-21T01:59:34.438Z,19.83
2023-04-21T02:02:02.994Z,17.13
2023-04-21T02:04:32.787Z,17.70
2023-04-21T02:07:00.107Z,18.17
2023-04-21T02:09:26.886Z,20.07
2023-04-21T02:11:55.350Z,18.57
2023-04-21T02:14:22.101Z,18.30
2023-04-21T02:16:48.909Z,17.57
2023-04-21T02:19:15.622Z,18.53
2023-04-21T02:21:42.262Z,20.53
2023-04-21T02:24:08.901Z,18.47
2023-04-21T02:26:35.841Z,20.63
2023-04-21T02:29:02.766Z,18.23
2023-04-21T02:31:29.618Z,16.87
2023-04-21T02:33:56.377Z,17.50
2023-04-21T02:36:23.079Z,16.60
2023-04-21T02:38:49.713Z,17.90
2023-04-21T02:41:16.497Z,19.93
2023-04-21T02:43:43.183Z,19.20
2023-04-21T02:46:09.911Z,17.93
2023-04-21T02:48:36.651Z,16.67
2023-04-21T02:51:04.313Z,17.67
2023-04-21T02:53:31.798Z,18.13
2023-04-21T02:55:58.582Z,18.33
2023-04-21T02:58:25.272Z,16.67
2023-04-21T03:00:52.060Z,19.13
2023-04-21T03:03:19.212Z,17.83
2023-04-21T03:05:46.064Z,17.07
2023-04-21T03:08:12.807Z,17.90
2023-04-21T03:10:39.737Z,18.13
2023-04-21T03:13:06.435Z,16.90
2023-04-21T03:15:33.154Z,18.50
2023-04-21T03:18:01.635Z,18.17
2023-04-21T03:20:28.475Z,18.10
2023-04-21T03:22:55.211Z,17.40
2023-04-21T03:25:22.184Z,17.37
2023-04-21T03:27:48.862Z,17.07
2023-04-21T03:30:15.582Z,16.90
2023-04-21T03:32:42.281Z,19.10
2023-04-21T03:35:09.111Z,17.67
2023-04-21T03:37:35.888Z,18.37
2023-04-21T03:40:03.040Z,20.87
2023-04-21T03:42:30.180Z,18.00
2023-04-21T03:45:01.053Z,19.70
2023-04-21T03:47:27.934Z,19.90
2023-04-21T03:49:54.594Z,17.97
2023-04-21T03:52:21.347Z,18.77
2023-04-21T03:54:48.020Z,20.37
2023-04-21T03:57:15.301Z,18.97
2023-04-21T03:59:42.080Z,18.17
2023-04-21T04:02:08.997Z,18.23
2023-04-21T04:04:36.595Z,19.77
2023-04-21T04:07:03.369Z,18.40
2023-04-21T04:09:30.546Z,17.13
2023-04-21T04:11:57.601Z,19.57
2023-04-21T04:14:24.291Z,16.23
2023-04-21T04:16:50.991Z,18.13
2023-04-21T04:19:18.044Z,18.17
2023-04-21T04:21:46.560Z,17.23
2023-04-21T04:24:15.812Z,20.77
2023-04-21T04:26:42.677Z,17.73
2023-04-21T04:29:10.628Z,20.57
2023-04-21T04:31:37.746Z,18.00
2023-04-21T04:34:04.854Z,20.87
2023-04-21T04:36:31.516Z,19.77
2023-04-21T04:38:59.424Z,20.33
2023-04-21T04:41:26.117Z,18.27
2023-04-21T04:43:53.469Z,19.17
2023-04-21T04:46:20.486Z,18.93
2023-04-21T04:48:47.367Z,19.00
2023-04-21T04:51:14.036Z,21.73
2023-04-21T04:53:40.688Z,19.67
2023-04-21T04:56:07.624Z,20.40
2023-04-21T04:58:34.539Z,19.07
2023-04-21T05:01:10.631Z,22.03
2023-04-21T05:03:37.430Z,18.80
2023-04-21T05:06:04.327Z,19.83
2023-04-21T05:08:31.012Z,20.93
2023-04-21T05:10:57.763Z,19.30
2023-04-21T05:13:24.481Z,20.70
2023-04-21T05:15:56.628Z,19.57
2023-04-21T05:18:23.406Z,22.53
2023-04-21T05:20:50.085Z,21.37
2023-04-21T05:23:16.731Z,20.03
2023-04-21T05:25:44.203Z,19.70
2023-04-21T05:28:10.836Z,20.67
2023-04-21T05:30:37.929Z,22.70
2023-04-21T05:33:04.603Z,19.67
2023-04-21T05:35:31.378Z,21.17
2023-04-21T05:37:58.169Z,18.40
2023-04-21T05:40:24.853Z,16.43
2023-04-21T05:42:51.480Z,18.30
2023-04-21T05:45:18.219Z,20.03
2023-04-21T05:47:44.893Z,19.73
2023-04-21T05:50:11.687Z,19.47
2023-04-21T05:52:38.566Z,18.50
2023-04-21T05:55:05.569Z,18.37
2023-04-21T05:57:32.330Z,23.63
2023-04-21T05:59:58.960Z,19.40
2023-04-21T06:02:25.870Z,18.30
2023-04-21T06:04:53.486Z,17.07
2023-04-21T06:07:20.719Z,17.67
2023-04-21T06:09:51.278Z,17.03
2023-04-21T06:12:17.910Z,18.03
2023-04-21T06:14:44.589Z,19.03
2023-04-21T06:17:11.302Z,16.67
2023-04-21T06:19:39.573Z,15.77
2023-04-21T06:22:07.041Z,16.87
2023-04-21T06:24:33.730Z,15.50
2023-04-21T06:27:01.584Z,17.93
2023-04-21T06:29:28.289Z,16.27
2023-04-21T06:31:54.969Z,16.90
2023-04-21T06:34:21.987Z,17.60
2023-04-21T06:36:48.802Z,17.37
2023-04-21T06:39:15.543Z,19.43
2023-04-21T06:41:42.223Z,19.47
2023-04-21T06:44:08.945Z,18.40
2023-04-21T06:46:35.769Z,14.73
2023-04-21T06:49:02.510Z,18.73
2023-04-21T06:51:29.185Z,16.57
2023-04-21T06:53:55.905Z,16.67
2023-04-21T06:56:22.557Z,16.20
2023-04-21T06:58:49.266Z,16.87
2023-04-21T07:01:16.006Z,15.77
2023-04-21T07:03:42.890Z,14.63
2023-04-21T07:06:09.697Z,13.67
2023-04-21T07:08:36.788Z,15.13
2023-04-21T07:11:03.466Z,14.30
2023-04-21T07:13:30.312Z,13.97
2023-04-21T07:15:57.011Z,15.17
2023-04-21T07:18:23.732Z,14.10
2023-04-21T07:20:50.920Z,16.07
2023-04-21T07:23:17.818Z,13.00
2023-04-21T07:25:44.600Z,13.13
2023-04-21T07:28:11.362Z,14.10
2023-04-21T07:30:38.146Z,15.57
2023-04-21T07:33:05.026Z,15.27
2023-04-21T07:35:31.730Z,13.87
2023-04-21T07:37:58.556Z,12.33
2023-04-21T07:40:25.293Z,15.23
2023-04-21T07:42:52.024Z,13.70
2023-04-21T07:45:18.655Z,12.53
2023-04-21T07:47:46.230Z,12.65
2023-04-21T07:50:13.041Z,12.87
2023-04-21T07:52:39.736Z,11.90
2023-04-21T07:55:06.783Z,13.03
2023-04-21T07:57:38.143Z,12.03
2023-04-21T08:00:06.114Z,11.73
2023-04-21T08:02:38.967Z,12.50
2023-04-21T08:05:06.120Z,11.77
2023-04-21T08:07:33.156Z,11.20
2023-04-21T08:10:00.249Z,9.63
2023-04-21T08:12:27.218Z,9.47
2023-04-21T08:14:57.831Z,8.67
2023-04-21T08:17:25.059Z,10.53
2023-04-21T08:19:52.016Z,10.70
2023-04-21T08:22:18.982Z,9.20
2023-04-21T08:24:45.714Z,9.40
2023-04-21T08:27:12.378Z,8.23
2023-04-21T08:29:39.047Z,9.33
2023-04-21T08:32:05.846Z,8.53
2023-04-21T08:34:32.648Z,8.27
2023-04-21T08:36:59.301Z,9.40
2023-04-21T08:39:26.758Z,10.77
2023-04-21T08:41:53.783Z,10.15
2023-04-21T08:44:21.155Z,8.53
2023-04-21T08:46:49.298Z,8.80
2023-04-21T08:49:18.894Z,8.77
2023-04-21T08:51:46.164Z,8.93
2023-04-21T08:54:13.244Z,9.67
2023-04-21T08:56:40.668Z,8.17
2023-04-21T08:59:07.542Z,8.00
2023-04-21T09:01:54.348Z,7.57
2023-04-21T09:04:21.138Z,7.43
2023-04-21T09:06:47.907Z,7.20
2023-04-21T09:09:14.669Z,7.57
2023-04-21T09:11:41.487Z,8.77
2023-04-21T09:14:09.655Z,8.67
2023-04-21T09:16:36.460Z,9.40
2023-04-21T09:19:03.253Z,8.33
2023-04-21T09:21:32.120Z,8.23
2023-04-21T09:24:03.992Z,7.00
2023-04-21T09:26:30.914Z,8.30
2023-04-21T09:28:57.698Z,8.43
2023-04-21T09:31:25.195Z,7.97
2023-04-21T09:33:58.358Z,7.43
2023-04-21T09:36:30.158Z,6.50
2023-04-21T09:39:20.766Z,7.03
2023-04-21T09:41:44.874Z,7.30
2023-04-21T09:44:11.731Z,6.67
2023-04-21T09:46:38.732Z,6.17
2023-04-21T09:49:06.488Z,5.97
2023-04-21T09:51:55.529Z,6.97
2023-04-21T09:56:53.253Z,6.40
2023-04-21T09:59:23.735Z,6.13
2023-04-21T10:01:51.905Z,5.80
2023-04-21T10:04:20.459Z,6.10
2023-04-21T10:06:48.110Z,6.40
2023-04-21T10:09:18.142Z,5.43
2023-04-21T10:11:44.825Z,5.27
2023-04-21T10:14:11.497Z,6.43
2023-04-21T10:16:38.520Z,5.97
2023-04-21T10:19:27.517Z,5.53
2023-04-21T10:21:57.644Z,5.10
2023-04-21T10:24:28.150Z,5.80
2023-04-21T10:26:56.621Z,5.20
2023-04-21T10:29:30.028Z,5.50
2023-04-21T10:32:03.110Z,5.53
2023-04-21T10:34:34.623Z,5.20
2023-04-21T10:37:04.048Z,7.07
2023-04-21T10:39:33.537Z,4.43
2023-04-21T10:42:12.178Z,5.50
2023-04-21T10:44:42.239Z,6.13
2023-04-21T10:47:09.050Z,4.70
2023-04-21T10:49:39.773Z,4.10
2023-04-21T10:52:10.783Z,5.27
2023-04-21T10:54:42.405Z,4.90
2023-04-21T10:57:11.246Z,4.73
2023-04-21T10:59:38.081Z,5.60
2023-04-21T11:02:06.196Z,4.97
2023-04-21T11:04:33.289Z,5.77
2023-04-21T11:07:13.432Z,4.50
2023-04-21T11:09:40.864Z,5.63
2023-04-21T11:12:11.329Z,5.17
2023-04-21T11:14:39.654Z,4.50
2023-04-21T11:17:15.222Z,4.60
2023-04-21T11:19:42.165Z,3.87
2023-04-21T11:22:08.893Z,5.07
2023-04-21T11:24:36.382Z,4.93
2023-04-21T11:27:03.345Z,8.47
2023-04-21T11:29:30.042Z,7.73
2023-04-21T11:31:58.650Z,4.80
2023-04-21T11:34:26.154Z,4.33
2023-04-21T11:36:53.042Z,5.83
2023-04-21T11:39:22.046Z,4.87
2023-04-21T11:41:49.981Z,4.30
2023-04-21T11:44:35.616Z,5.07
2023-04-21T11:47:15.149Z,4.93
2023-04-21T11:49:48.827Z,5.80
2023-04-21T11:52:25.517Z,4.70
2023-04-21T11:54:56.979Z,4.93
2023-04-21T11:57:25.267Z,6.10
2023-04-21T11:59:52.564Z,5.40
2023-04-21T12:02:27.508Z,6.40
2023-04-21T12:04:58.000Z,4.93
2023-04-21T12:07:24.797Z,3.90
2023-04-21T12:09:51.852Z,4.20
2023-04-21T12:12:18.686Z,4.53
2023-04-21T12:14:45.370Z,3.73
2023-04-21T12:17:12.082Z,3.83
2023-04-21T12:19:40.246Z,5.03
2023-04-21T12:22:08.411Z,3.53
2023-04-21T12:24:36.670Z,3.73
2023-04-21T12:27:03.903Z,3.53
2023-04-21T12:29:30.606Z,3.93
2023-04-21T12:31:57.426Z,3.20
2023-04-21T12:34:24.130Z,3.83
2023-04-21T12:36:50.937Z,3.90
2023-04-21T12:39:18.764Z,4.37
2023-04-21T12:41:47.331Z,3.40
2023-04-21T12:44:14.337Z,4.80
2023-04-21T12:46:41.612Z,3.70
2023-04-21T12:49:09.780Z,3.00
2023-04-21T12:51:36.509Z,3.23
2023-04-21T12:54:03.444Z,3.27
2023-04-21T12:56:30.467Z,3.30
2023-04-21T12:58:58.012Z,3.40
2023-04-21T13:01:24.874Z,2.80
2023-04-21T13:03:51.806Z,2.73
2023-04-21T13:06:18.637Z,2.47
2023-04-21T13:08:45.383Z,3.07
2023-04-21T13:11:13.674Z,2.60
2023-04-21T13:13:40.559Z,2.60
2023-04-21T13:16:07.228Z,2.90
2023-04-21T13:18:37.676Z,3.30
2023-04-21T13:21:04.526Z,2.80
2023-04-21T13:23:31.226Z,3.60
2023-04-21T13:25:57.921Z,3.03
2023-04-21T13:28:25.109Z,3.40
2023-04-21T13:30:52.204Z,3.97
2023-04-21T13:33:19.537Z,3.57
2023-04-21T13:35:46.397Z,3.10
2023-04-21T13:38:13.093Z,3.17
2023-04-21T13:40:39.741Z,3.03
2023-04-21T13:43:06.627Z,3.43
2023-04-21T13:45:33.320Z,3.30
2023-04-21T13:48:00.235Z,4.17
2023-04-21T13:50:26.933Z,3.20
2023-04-21T13:52:53.679Z,3.20
2023-04-21T13:55:21.001Z,3.17
2023-04-21T13:57:47.706Z,3.20
2023-04-21T14:00:15.010Z,3.10
2023-04-21T14:02:42.034Z,2.73
2023-04-21T14:05:09.100Z,2.70
2023-04-21T14:07:36.455Z,2.77
2023-04-21T14:10:04.284Z,3.00
2023-04-21T14:12:31.129Z,4.23
2023-04-21T14:14:57.812Z,3.53
2023-04-21T14:17:24.601Z,5.10
2023-04-21T14:19:52.597Z,2.67
2023-04-21T14:22:21.121Z,2.60
2023-04-21T14:24:47.871Z,2.87
2023-04-21T14:27:14.688Z,2.60
2023-04-21T14:29:41.415Z,3.10
2023-04-21T14:32:08.209Z,2.80
2023-04-21T14:34:34.926Z,2.40
2023-04-21T14:37:01.655Z,1.80
2023-04-21T14:39:28.419Z,2.37
2023-04-21T14:41:55.062Z,2.20
2023-04-21T14:44:21.908Z,2.10
2023-04-21T14:47:01.058Z,3.27
2023-04-21T14:49:33.394Z,2.10
2023-04-21T14:52:00.646Z,1.70
2023-04-21T14:54:27.702Z,1.70
2023-04-21T14:57:00.644Z,1.80
2023-04-21T14:59:33.939Z,3.60
2023-04-21T15:02:01.105Z,2.30
2023-04-21T15:04:28.226Z,2.30
2023-04-21T15:06:54.978Z,2.27
2023-04-21T15:09:21.660Z,2.13
2023-04-21T15:11:48.645Z,2.40
2023-04-21T15:14:15.411Z,1.90
2023-04-21T15:16:42.176Z,1.97
2023-04-21T15:19:09.070Z,3.03
2023-04-21T15:21:35.694Z,2.63
2023-04-21T15:24:02.813Z,2.50
2023-04-21T15:26:30.320Z,2.87
2023-04-21T15:28:57.602Z,2.20
2023-04-21T15:31:24.292Z,3.97
2023-04-21T15:33:51.208Z,2.30
2023-04-21T15:36:17.860Z,3.23
2023-04-21T15:38:45.023Z,3.57
2023-04-21T15:41:11.809Z,2.57
2023-04-21T15:43:38.518Z,4.53
2023-04-21T15:46:12.988Z,2.53
2023-04-21T15:48:41.057Z,3.03
2023-04-21T15:51:08.148Z,4.47
2023-04-21T15:53:35.510Z,4.83
2023-04-21T15:56:02.340Z,3.93
2023-04-21T15:58:29.026Z,2.30
2023-04-21T16:00:55.736Z,3.63
2023-04-21T16:03:22.896Z,2.83
2023-04-21T16:05:49.852Z,2.70
2023-04-21T16:08:16.686Z,3.03
2023-04-21T16:10:43.555Z,2.70
2023-04-21T16:13:10.326Z,3.70
2023-04-21T16:15:37.192Z,2.83
2023-04-21T16:18:06.371Z,2.70
2023-04-21T16:20:33.375Z,2.70
2023-04-21T16:23:00.159Z,3.73
2023-04-21T16:25:27.151Z,3.23
2023-04-21T16:27:53.927Z,3.20
2023-04-21T16:30:20.802Z,3.67
2023-04-21T16:32:47.670Z,2.27
2023-04-21T16:35:14.568Z,2.77
2023-04-21T16:37:42.661Z,5.93
2023-04-21T16:40:10.099Z,2.93
2023-04-21T16:42:37.154Z,3.57
2023-04-21T16:45:04.539Z,2.40
2023-04-21T16:47:33.750Z,2.60
2023-04-21T16:50:00.576Z,2.00
2023-04-21T16:52:27.556Z,5.43
2023-04-21T16:54:54.249Z,2.23
2023-04-21T16:57:23.702Z,4.57
2023-04-21T16:59:53.550Z,5.27
2023-04-21T17:02:20.537Z,4.70
2023-04-21T17:04:47.285Z,6.03
2023-04-21T17:07:14.387Z,68.03
2023-04-21T17:09:41.213Z,5.70
2023-04-21T17:12:07.986Z,10.13
2023-04-21T17:14:35.114Z,10.80
2023-04-21T17:17:02.232Z,8.87
2023-04-21T17:19:28.942Z,6.13
2023-04-21T17:21:55.813Z,2.60
2023-04-21T17:24:22.568Z,3.20
2023-04-21T17:26:49.197Z,4.10
2023-04-21T17:29:15.946Z,4.63
2023-04-21T17:31:42.604Z,4.10
2023-04-21T17:34:09.418Z,4.20
2023-04-21T17:36:36.207Z,4.67
2023-04-21T17:39:02.923Z,4.83
2023-04-21T17:41:29.789Z,3.67
2023-04-21T17:43:56.448Z,6.47
2023-04-21T17:46:25.180Z,4.37
2023-04-21T17:48:52.180Z,5.73
2023-04-21T17:51:19.392Z,6.77
2023-04-21T17:53:49.243Z,8.63
2023-04-21T17:56:15.991Z,8.43
2023-04-21T17:58:42.665Z,6.23
2023-04-21T18:01:09.480Z,6.50
2023-04-21T18:03:36.425Z,11.83
2023-04-21T18:06:04.730Z,6.03
2023-04-21T18:08:31.689Z,3.97
2023-04-21T18:10:58.396Z,3.40
2023-04-21T18:13:25.111Z,3.10
2023-04-21T18:15:51.878Z,5.77
2023-04-21T18:18:18.769Z,3.70
2023-04-21T18:20:45.721Z,4.57
2023-04-21T18:23:12.546Z,6.30
2023-04-21T18:25:42.484Z,5.00
2023-04-21T18:28:11.323Z,6.47
2023-04-21T18:30:41.440Z,5.63
2023-04-21T18:33:09.054Z,7.37
2023-04-21T18:35:35.840Z,6.07
2023-04-21T18:38:02.693Z,4.83
2023-04-21T18:40:29.475Z,5.37
2023-04-21T18:42:56.827Z,5.23
2023-04-21T18:45:23.476Z,5.17
2023-04-21T18:47:50.147Z,5.40
2023-04-21T18:50:16.877Z,6.30
2023-04-21T18:52:43.538Z,4.57
2023-04-21T18:55:10.236Z,4.73
2023-04-21T18:57:36.952Z,4.23
2023-04-21T19:00:03.870Z,5.23
2023-04-21T19:02:30.734Z,4.23
2023-04-21T19:04:57.524Z,4.67
2023-04-21T19:07:24.302Z,4.27
2023-04-21T19:09:52.040Z,4.90
2023-04-21T19:12:19.388Z,4.30
2023-04-21T19:14:47.474Z,3.90
2023-04-21T19:17:15.001Z,3.47
2023-04-21T19:19:42.118Z,3.13
2023-04-21T19:22:08.753Z,3.40
2023-04-21T19:24:35.621Z,3.70
2023-04-21T19:27:03.375Z,3.87
2023-04-21T19:29:31.113Z,2.90
2023-04-21T19:31:58.157Z,3.30
2023-04-21T19:34:24.819Z,3.43
2023-04-21T19:36:52.752Z,4.30
2023-04-21T19:39:19.840Z,3.43
2023-04-21T19:41:46.598Z,3.53
2023-04-21T19:44:13.279Z,3.40
2023-04-21T19:46:42.589Z,3.83
2023-04-21T19:49:12.814Z,5.27
2023-04-21T19:51:40.992Z,5.70
2023-04-21T19:54:11.538Z,3.63
2023-04-21T19:56:39.681Z,5.80
2023-04-21T19:59:06.617Z,5.07
2023-04-21T20:01:33.687Z,4.20
2023-04-21T20:04:00.823Z,4.50
2023-04-21T20:06:28.429Z,6.30
2023-04-21T20:08:55.461Z,3.70
2023-04-21T20:11:23.047Z,4.07
2023-04-21T20:13:50.138Z,4.87
2023-04-21T20:16:19.756Z,3.43
2023-04-21T20:18:46.612Z,4.23
2023-04-21T20:21:13.312Z,4.10
2023-04-21T20:23:40.022Z,6.97
2023-04-21T20:26:06.779Z,4.10
2023-04-21T20:28:33.576Z,3.80
2023-04-21T20:31:00.646Z,4.03
2023-04-21T20:33:28.101Z,4.37
2023-04-21T20:35:55.285Z,5.03
2023-04-21T20:38:23.796Z,6.97
2023-04-21T20:40:52.136Z,33.37
2023-04-21T20:43:18.806Z,5.67
2023-04-21T20:45:46.111Z,8.03
2023-04-21T20:48:12.960Z,3.83
2023-04-21T20:50:39.600Z,4.00
2023-04-21T20:53:08.374Z,5.37
2023-04-21T20:55:35.529Z,5.53
2023-04-21T20:58:02.610Z,5.07
2023-04-21T21:00:32.501Z,5.57
2023-04-21T21:02:59.501Z,5.07
2023-04-21T21:05:30.286Z,4.53
2023-04-21T21:07:56.996Z,5.47
2023-04-21T21:10:23.798Z,4.33
2023-04-21T21:12:50.561Z,6.73
2023-04-21T21:15:17.287Z,5.10
2023-04-21T21:17:44.027Z,5.00
2023-04-21T21:20:10.975Z,4.87
2023-04-21T21:22:37.777Z,4.50
2023-04-21T21:25:05.152Z,7.00
2023-04-21T21:27:31.895Z,8.90
2023-04-21T21:29:58.656Z,6.37
2023-04-21T21:32:25.372Z,5.87
2023-04-21T21:34:52.193Z,5.50
2023-04-21T21:37:19.011Z,6.27
2023-04-21T21:39:45.753Z,4.70
2023-04-21T21:42:12.443Z,5.13
2023-04-21T21:44:39.194Z,6.97
2023-04-21T21:47:05.964Z,6.13
2023-04-21T21:49:32.890Z,6.43
2023-04-21T21:51:59.593Z,4.13
2023-04-21T21:54:26.355Z,23.13
2023-04-21T21:56:53.173Z,96.60
2023-04-21T21:59:19.923Z,9.90
2023-04-21T22:01:46.588Z,14.47
2023-04-21T22:04:13.591Z,29.20
2023-04-21T22:06:40.366Z,8.03
2023-04-21T22:09:07.325Z,5.47
2023-04-21T22:11:34.114Z,6.63
2023-04-21T22:14:07.970Z,5.10
2023-04-21T22:16:45.977Z,5.00
2023-04-21T22:19:12.649Z,8.97
2023-04-21T22:21:39.301Z,5.47
2023-04-21T22:24:06.011Z,6.70
2023-04-21T22:26:32.700Z,5.90
2023-04-21T22:28:59.361Z,5.00
2023-04-21T22:31:26.085Z,5.67
2023-04-21T22:33:52.961Z,5.13
2023-04-21T22:36:19.716Z,4.67
2023-04-21T22:38:46.582Z,5.37
2023-04-21T22:41:13.822Z,5.73
2023-04-21T22:43:40.682Z,7.13
2023-04-21T22:46:07.451Z,4.53
2023-04-21T22:48:36.079Z,6.27
2023-04-21T22:51:02.915Z,6.03
2023-04-21T22:53:29.611Z,5.13
2023-04-21T22:55:56.252Z,4.30
2023-04-21T22:58:23.016Z,5.97
2023-04-21T23:00:49.840Z,6.20
2023-04-21T23:03:16.700Z,4.77
2023-04-21T23:05:43.564Z,6.90
2023-04-21T23:08:10.244Z,8.40
2023-04-21T23:10:36.907Z,7.10
2023-04-21T23:13:03.539Z,4.93
2023-04-21T23:15:31.880Z,5.40
2023-04-21T23:17:58.639Z,5.47
2023-04-21T23:20:25.572Z,5.03
2023-04-21T23:22:52.256Z,7.37
2023-04-21T23:25:19.030Z,6.63
2023-04-21T23:27:45.749Z,6.30
2023-04-21T23:30:12.680Z,5.30
2023-04-21T23:32:39.485Z,5.13
2023-04-21T23:35:06.609Z,7.60
2023-04-21T23:37:33.298Z,8.83
2023-04-21T23:40:00.004Z,7.07
2023-04-21T23:42:26.693Z,6.63
2023-04-21T23:44:53.352Z,6.07
2023-04-21T23:47:20.443Z,6.53
2023-04-21T23:49:47.196Z,8.80
2023-04-21T23:52:14.844Z,5.30
2023-04-21T23:54:41.597Z,5.30
2023-04-21T23:57:08.314Z,9.07
2023-04-21T23:59:35.020Z,7.83
